sensor_id;sensor_type;location;lat;lon;timestamp;P1;durP1;ratioP1;P2;durP2;ratioP2
47161;SDS011;32921;53.256;8.198;2023-07-22T00:02:10;0.15;;;0.15;;
47161;SDS011;32921;53.256;8.198;2023-07-22T00:04:36;0.85;;;0.63;;
47161;SDS011;32921;53.256;8.198;2023-07-22T00:07:02;0.60;;;0.60;;
47161;SDS011;32921;53.256;8.198;2023-07-22T00:09:28;0.10;;;0.10;;
47161;SDS011;32921;53.256;8.198;2023-07-22T00:11:54;0.32;;;0.32;;
47161;SDS011;32921;53.256;8.198;2023-07-22T00:14:19;0.38;;;0.38;;
47161;SDS011;32921;53.256;8.198;2023-07-22T00:16:45;0.30;;;0.30;;
47161;SDS011;32921;53.256;8.198;2023-07-22T00:19:10;0.10;;;0.10;;
47161;SDS011;32921;53.256;8.198;2023-07-22T00:21:36;0.10;;;0.10;;
47161;SDS011;32921;53.256;8.198;2023-07-22T00:24:01;0.30;;;0.30;;
47161;SDS011;32921;53.256;8.198;2023-07-22T00:26:27;0.52;;;0.40;;
47161;SDS011;32921;53.256;8.198;2023-07-22T00:28:53;0.13;;;0.13;;
47161;SDS011;32921;53.256;8.198;2023-07-22T00:31:18;0.13;;;0.13;;
47161;SDS011;32921;53.256;8.198;2023-07-22T00:33:44;0.98;;;0.30;;
47161;SDS011;32921;53.256;8.198;2023-07-22T00:36:09;0.13;;;0.13;;
47161;SDS011;32921;53.256;8.198;2023-07-22T00:38:35;0.65;;;0.65;;
47161;SDS011;32921;53.256;8.198;2023-07-22T00:41:00;0.15;;;0.15;;
47161;SDS011;32921;53.256;8.198;2023-07-22T00:43:29;5.38;;;1.40;;
47161;SDS011;32921;53.256;8.198;2023-07-22T00:45:55;0.63;;;0.63;;
47161;SDS011;32921;53.256;8.198;2023-07-22T00:48:20;0.30;;;0.30;;
47161;SDS011;32921;53.256;8.198;2023-07-22T00:50:47;0.43;;;0.43;;
47161;SDS011;32921;53.256;8.198;2023-07-22T00:53:12;0.10;;;0.10;;
47161;SDS011;32921;53.256;8.198;2023-07-22T00:55:39;0.68;;;0.68;;
47161;SDS011;32921;53.256;8.198;2023-07-22T00:58:08;3.00;;;2.00;;
47161;SDS011;32921;53.256;8.198;2023-07-22T01:00:33;0.10;;;0.10;;
47161;SDS011;32921;53.256;8.198;2023-07-22T01:02:59;0.45;;;0.35;;
47161;SDS011;32921;53.256;8.198;2023-07-22T01:05:25;0.28;;;0.28;;
47161;SDS011;32921;53.256;8.198;2023-07-22T01:07:52;0.93;;;0.65;;
47161;SDS011;32921;53.256;8.198;2023-07-22T01:10:18;0.35;;;0.35;;
47161;SDS011;32921;53.256;8.198;2023-07-22T01:12:45;2.60;;;0.68;;
47161;SDS011;32921;53.256;8.198;2023-07-22T01:15:10;0.13;;;0.13;;
47161;SDS011;32921;53.256;8.198;2023-07-22T01:17:36;0.30;;;0.20;;
47161;SDS011;32921;53.256;8.198;2023-07-22T01:20:03;0.10;;;0.10;;
47161;SDS011;32921;53.256;8.198;2023-07-22T01:22:30;0.35;;;0.35;;
47161;SDS011;32921;53.256;8.198;2023-07-22T01:24:57;1.15;;;1.00;;
47161;SDS011;32921;53.256;8.198;2023-07-22T01:27:23;1.55;;;0.75;;
47161;SDS011;32921;53.256;8.198;2023-07-22T01:29:52;0.60;;;0.50;;
47161;SDS011;32921;53.256;8.198;2023-07-22T01:32:18;0.98;;;0.80;;
47161;SDS011;32921;53.256;8.198;2023-07-22T01:34:45;0.10;;;0.10;;
47161;SDS011;32921;53.256;8.198;2023-07-22T01:37:11;1.10;;;1.08;;
47161;SDS011;32921;53.256;8.198;2023-07-22T01:39:36;0.40;;;0.40;;
47161;SDS011;32921;53.256;8.198;2023-07-22T01:42:02;0.10;;;0.10;;
47161;SDS011;32921;53.256;8.198;2023-07-22T01:44:28;3.10;;;0.52;;
47161;SDS011;32921;53.256;8.198;2023-07-22T01:46:55;0.10;;;0.10;;
47161;SDS011;32921;53.256;8.198;2023-07-22T01:49:20;0.20;;;0.20;;
47161;SDS011;32921;53.256;8.198;2023-07-22T01:51:46;1.08;;;0.90;;
47161;SDS011;32921;53.256;8.198;2023-07-22T01:54:11;1.30;;;1.20;;
47161;SDS011;32921;53.256;8.198;2023-07-22T01:56:37;0.60;;;0.60;;
47161;SDS011;32921;53.256;8.198;2023-07-22T01:59:04;0.20;;;0.20;;
47161;SDS011;32921;53.256;8.198;2023-07-22T02:01:30;0.10;;;0.10;;
47161;SDS011;32921;53.256;8.198;2023-07-22T02:03:56;0.35;;;0.35;;
47161;SDS011;32921;53.256;8.198;2023-07-22T02:06:22;0.35;;;0.35;;
47161;SDS011;32921;53.256;8.198;2023-07-22T02:08:47;0.40;;;0.40;;
47161;SDS011;32921;53.256;8.198;2023-07-22T02:11:13;0.10;;;0.10;;
47161;SDS011;32921;53.256;8.198;2023-07-22T02:13:39;0.70;;;0.70;;
47161;SDS011;32921;53.256;8.198;2023-07-22T02:16:04;0.10;;;0.10;;
47161;SDS011;32921;53.256;8.198;2023-07-22T02:18:30;0.10;;;0.10;;
47161;SDS011;32921;53.256;8.198;2023-07-22T02:20:56;0.20;;;0.20;;
47161;SDS011;32921;53.256;8.198;2023-07-22T02:23:22;19.65;;;0.82;;
47161;SDS011;32921;53.256;8.198;2023-07-22T02:25:48;0.80;;;0.63;;
47161;SDS011;32921;53.256;8.198;2023-07-22T02:28:18;0.50;;;0.43;;
47161;SDS011;32921;53.256;8.198;2023-07-22T02:30:48;0.73;;;0.73;;
47161;SDS011;32921;53.256;8.198;2023-07-22T02:33:15;2.47;;;1.60;;
47161;SDS011;32921;53.256;8.198;2023-07-22T02:35:41;0.20;;;0.20;;
47161;SDS011;32921;53.256;8.198;2023-07-22T02:38:07;0.20;;;0.20;;
47161;SDS011;32921;53.256;8.198;2023-07-22T02:40:36;0.68;;;0.60;;
47161;SDS011;32921;53.256;8.198;2023-07-22T02:43:02;0.17;;;0.17;;
47161;SDS011;32921;53.256;8.198;2023-07-22T02:45:28;0.10;;;0.10;;
47161;SDS011;32921;53.256;8.198;2023-07-22T02:47:54;0.20;;;0.20;;
47161;SDS011;32921;53.256;8.198;2023-07-22T02:50:19;1.17;;;1.08;;
47161;SDS011;32921;53.256;8.198;2023-07-22T02:52:45;0.30;;;0.30;;
47161;SDS011;32921;53.256;8.198;2023-07-22T02:55:12;1.65;;;1.45;;
47161;SDS011;32921;53.256;8.198;2023-07-22T02:57:44;20.70;;;0.65;;
47161;SDS011;32921;53.256;8.198;2023-07-22T03:00:15;0.50;;;0.50;;
47161;SDS011;32921;53.256;8.198;2023-07-22T03:02:48;0.88;;;0.70;;
47161;SDS011;32921;53.256;8.198;2023-07-22T03:05:15;0.20;;;0.20;;
47161;SDS011;32921;53.256;8.198;2023-07-22T03:07:41;0.17;;;0.15;;
47161;SDS011;32921;53.256;8.198;2023-07-22T03:10:07;0.25;;;0.25;;
47161;SDS011;32921;53.256;8.198;2023-07-22T03:12:34;0.20;;;0.20;;
47161;SDS011;32921;53.256;8.198;2023-07-22T03:15:00;0.10;;;0.10;;
47161;SDS011;32921;53.256;8.198;2023-07-22T03:17:26;0.35;;;0.35;;
47161;SDS011;32921;53.256;8.198;2023-07-22T03:19:52;0.20;;;0.20;;
47161;SDS011;32921;53.256;8.198;2023-07-22T03:22:18;0.30;;;0.30;;
47161;SDS011;32921;53.256;8.198;2023-07-22T03:24:44;1.58;;;1.05;;
47161;SDS011;32921;53.256;8.198;2023-07-22T03:27:10;0.80;;;0.45;;
47161;SDS011;32921;53.256;8.198;2023-07-22T03:29:36;0.10;;;0.10;;
47161;SDS011;32921;53.256;8.198;2023-07-22T03:32:03;0.20;;;0.20;;
47161;SDS011;32921;53.256;8.198;2023-07-22T03:34:30;0.20;;;0.20;;
47161;SDS011;32921;53.256;8.198;2023-07-22T03:36:56;0.13;;;0.13;;
47161;SDS011;32921;53.256;8.198;2023-07-22T03:39:22;0.20;;;0.20;;
47161;SDS011;32921;53.256;8.198;2023-07-22T03:41:48;1.80;;;1.45;;
47161;SDS011;32921;53.256;8.198;2023-07-22T03:44:13;0.45;;;0.45;;
47161;SDS011;32921;53.256;8.198;2023-07-22T03:46:39;0.22;;;0.22;;
47161;SDS011;32921;53.256;8.198;2023-07-22T03:49:05;0.10;;;0.10;;
47161;SDS011;32921;53.256;8.198;2023-07-22T03:51:30;0.10;;;0.10;;
47161;SDS011;32921;53.256;8.198;2023-07-22T03:53:57;0.20;;;0.20;;
47161;SDS011;32921;53.256;8.198;2023-07-22T03:56:22;1.83;;;0.73;;
47161;SDS011;32921;53.256;8.198;2023-07-22T03:58:51;0.40;;;0.40;;
47161;SDS011;32921;53.256;8.198;2023-07-22T04:01:17;0.28;;;0.28;;
47161;SDS011;32921;53.256;8.198;2023-07-22T04:03:43;0.10;;;0.10;;
47161;SDS011;32921;53.256;8.198;2023-07-22T04:06:09;1.17;;;0.47;;
47161;SDS011;32921;53.256;8.198;2023-07-22T04:08:35;0.25;;;0.25;;
47161;SDS011;32921;53.256;8.198;2023-07-22T04:11:01;0.10;;;0.10;;
47161;SDS011;32921;53.256;8.198;2023-07-22T04:13:27;0.55;;;0.52;;
47161;SDS011;32921;53.256;8.198;2023-07-22T04:15:53;1.00;;;0.60;;
47161;SDS011;32921;53.256;8.198;2023-07-22T04:18:19;0.10;;;0.10;;
47161;SDS011;32921;53.256;8.198;2023-07-22T04:20:45;0.10;;;0.10;;
47161;SDS011;32921;53.256;8.198;2023-07-22T04:23:13;0.63;;;0.60;;
47161;SDS011;32921;53.256;8.198;2023-07-22T04:25:42;0.10;;;0.10;;
47161;SDS011;32921;53.256;8.198;2023-07-22T04:28:09;0.10;;;0.10;;
47161;SDS011;32921;53.256;8.198;2023-07-22T04:30:35;0.10;;;0.10;;
47161;SDS011;32921;53.256;8.198;2023-07-22T04:33:01;0.63;;;0.55;;
47161;SDS011;32921;53.256;8.198;2023-07-22T04:35:30;0.20;;;0.20;;
47161;SDS011;32921;53.256;8.198;2023-07-22T04:38:03;0.10;;;0.10;;
47161;SDS011;32921;53.256;8.198;2023-07-22T04:40:29;0.10;;;0.10;;
47161;SDS011;32921;53.256;8.198;2023-07-22T04:42:55;0.50;;;0.50;;
47161;SDS011;32921;53.256;8.198;2023-07-22T04:45:21;0.35;;;0.35;;
47161;SDS011;32921;53.256;8.198;2023-07-22T04:47:49;0.63;;;0.60;;
47161;SDS011;32921;53.256;8.198;2023-07-22T04:50:17;0.30;;;0.30;;
47161;SDS011;32921;53.256;8.198;2023-07-22T04:52:46;0.20;;;0.20;;
47161;SDS011;32921;53.256;8.198;2023-07-22T04:55:13;0.10;;;0.10;;
47161;SDS011;32921;53.256;8.198;2023-07-22T04:57:39;0.40;;;0.40;;
47161;SDS011;32921;53.256;8.198;2023-07-22T05:00:07;0.28;;;0.28;;
47161;SDS011;32921;53.256;8.198;2023-07-22T05:02:34;0.73;;;0.47;;
47161;SDS011;32921;53.256;8.198;2023-07-22T05:05:00;0.57;;;0.57;;
47161;SDS011;32921;53.256;8.198;2023-07-22T05:07:26;0.10;;;0.10;;
47161;SDS011;32921;53.256;8.198;2023-07-22T05:09:51;0.38;;;0.38;;
47161;SDS011;32921;53.256;8.198;2023-07-22T05:12:18;1.17;;;0.90;;
47161;SDS011;32921;53.256;8.198;2023-07-22T05:14:44;0.10;;;0.10;;
47161;SDS011;32921;53.256;8.198;2023-07-22T05:17:10;0.15;;;0.15;;
47161;SDS011;32921;53.256;8.198;2023-07-22T05:19:36;0.43;;;0.43;;
47161;SDS011;32921;53.256;8.198;2023-07-22T05:22:01;0.10;;;0.10;;
47161;SDS011;32921;53.256;8.198;2023-07-22T05:24:27;1.45;;;1.17;;
47161;SDS011;32921;53.256;8.198;2023-07-22T05:26:53;0.28;;;0.28;;
47161;SDS011;32921;53.256;8.198;2023-07-22T05:29:19;0.20;;;0.20;;
47161;SDS011;32921;53.256;8.198;2023-07-22T05:31:44;0.22;;;0.22;;
47161;SDS011;32921;53.256;8.198;2023-07-22T05:34:11;1.02;;;0.65;;
47161;SDS011;32921;53.256;8.198;2023-07-22T05:36:37;2.42;;;0.60;;
47161;SDS011;32921;53.256;8.198;2023-07-22T05:39:03;0.20;;;0.20;;
47161;SDS011;32921;53.256;8.198;2023-07-22T05:41:28;0.30;;;0.30;;
47161;SDS011;32921;53.256;8.198;2023-07-22T05:43:54;7.60;;;1.42;;
47161;SDS011;32921;53.256;8.198;2023-07-22T05:46:19;0.10;;;0.10;;
47161;SDS011;32921;53.256;8.198;2023-07-22T05:48:45;1.35;;;0.40;;
47161;SDS011;32921;53.256;8.198;2023-07-22T05:51:10;0.80;;;0.65;;
47161;SDS011;32921;53.256;8.198;2023-07-22T05:53:36;0.30;;;0.30;;
47161;SDS011;32921;53.256;8.198;2023-07-22T05:56:01;0.32;;;0.30;;
47161;SDS011;32921;53.256;8.198;2023-07-22T05:58:27;0.10;;;0.10;;
47161;SDS011;32921;53.256;8.198;2023-07-22T06:00:53;0.15;;;0.15;;
47161;SDS011;32921;53.256;8.198;2023-07-22T06:03:19;0.10;;;0.10;;
47161;SDS011;32921;53.256;8.198;2023-07-22T06:05:46;0.95;;;0.60;;
47161;SDS011;32921;53.256;8.198;2023-07-22T06:08:11;0.10;;;0.10;;
47161;SDS011;32921;53.256;8.198;2023-07-22T06:10:37;0.30;;;0.30;;
47161;SDS011;32921;53.256;8.198;2023-07-22T06:13:03;0.10;;;0.10;;
47161;SDS011;32921;53.256;8.198;2023-07-22T06:15:29;3.33;;;0.90;;
47161;SDS011;32921;53.256;8.198;2023-07-22T06:17:55;0.30;;;0.30;;
47161;SDS011;32921;53.256;8.198;2023-07-22T06:20:20;0.75;;;0.20;;
47161;SDS011;32921;53.256;8.198;2023-07-22T06:22:46;0.10;;;0.10;;
47161;SDS011;32921;53.256;8.198;2023-07-22T06:25:12;0.35;;;0.30;;
47161;SDS011;32921;53.256;8.198;2023-07-22T06:27:37;0.43;;;0.43;;
47161;SDS011;32921;53.256;8.198;2023-07-22T06:30:03;0.15;;;0.15;;
47161;SDS011;32921;53.256;8.198;2023-07-22T06:32:29;0.10;;;0.10;;
47161;SDS011;32921;53.256;8.198;2023-07-22T06:34:58;0.15;;;0.15;;
47161;SDS011;32921;53.256;8.198;2023-07-22T06:37:23;0.80;;;0.55;;
47161;SDS011;32921;53.256;8.198;2023-07-22T06:39:49;0.10;;;0.10;;
47161;SDS011;32921;53.256;8.198;2023-07-22T06:42:15;0.20;;;0.20;;
47161;SDS011;32921;53.256;8.198;2023-07-22T06:44:41;1.25;;;0.52;;
47161;SDS011;32921;53.256;8.198;2023-07-22T06:47:07;0.00;;;0.00;;
47161;SDS011;32921;53.256;8.198;2023-07-22T06:49:33;0.10;;;0.10;;
47161;SDS011;32921;53.256;8.198;2023-07-22T06:51:58;0.10;;;0.10;;
47161;SDS011;32921;53.256;8.198;2023-07-22T06:54:24;0.10;;;0.10;;
47161;SDS011;32921;53.256;8.198;2023-07-22T06:56:49;2.28;;;0.57;;
47161;SDS011;32921;53.256;8.198;2023-07-22T06:59:15;0.85;;;0.82;;
47161;SDS011;32921;53.256;8.198;2023-07-22T07:01:40;0.10;;;0.10;;
47161;SDS011;32921;53.256;8.198;2023-07-22T07:04:06;0.10;;;0.10;;
47161;SDS011;32921;53.256;8.198;2023-07-22T07:06:31;0.05;;;0.05;;
47161;SDS011;32921;53.256;8.198;2023-07-22T07:09:00;0.10;;;0.10;;
47161;SDS011;32921;53.256;8.198;2023-07-22T07:11:25;0.15;;;0.15;;
47161;SDS011;32921;53.256;8.198;2023-07-22T07:13:51;0.52;;;0.40;;
47161;SDS011;32921;53.256;8.198;2023-07-22T07:16:22;0.20;;;0.20;;
47161;SDS011;32921;53.256;8.198;2023-07-22T07:18:51;0.08;;;0.08;;
47161;SDS011;32921;53.256;8.198;2023-07-22T07:21:18;0.20;;;0.15;;
47161;SDS011;32921;53.256;8.198;2023-07-22T07:23:44;0.08;;;0.08;;
47161;SDS011;32921;53.256;8.198;2023-07-22T07:26:10;0.17;;;0.17;;
47161;SDS011;32921;53.256;8.198;2023-07-22T07:28:36;0.00;;;0.00;;
47161;SDS011;32921;53.256;8.198;2023-07-22T07:31:01;0.00;;;0.00;;
47161;SDS011;32921;53.256;8.198;2023-07-22T07:33:27;0.70;;;0.22;;
47161;SDS011;32921;53.256;8.198;2023-07-22T07:35:53;0.00;;;0.00;;
47161;SDS011;32921;53.256;8.198;2023-07-22T07:38:18;0.17;;;0.17;;
47161;SDS011;32921;53.256;8.198;2023-07-22T07:40:44;0.05;;;0.05;;
47161;SDS011;32921;53.256;8.198;2023-07-22T07:43:09;10.73;;;3.10;;
47161;SDS011;32921;53.256;8.198;2023-07-22T07:45:38;7.15;;;2.63;;
47161;SDS011;32921;53.256;8.198;2023-07-22T07:48:04;7.00;;;2.80;;
47161;SDS011;32921;53.256;8.198;2023-07-22T07:50:30;7.70;;;2.80;;
47161;SDS011;32921;53.256;8.198;2023-07-22T07:52:57;6.70;;;2.90;;
47161;SDS011;32921;53.256;8.198;2023-07-22T07:55:24;9.25;;;2.83;;
47161;SDS011;32921;53.256;8.198;2023-07-22T07:57:50;6.45;;;2.55;;
47161;SDS011;32921;53.256;8.198;2023-07-22T08:00:15;8.07;;;2.90;;
47161;SDS011;32921;53.256;8.198;2023-07-22T08:02:41;7.40;;;3.00;;
47161;SDS011;32921;53.256;8.198;2023-07-22T08:05:07;7.90;;;3.10;;
47161;SDS011;32921;53.256;8.198;2023-07-22T08:07:33;5.00;;;2.97;;
47161;SDS011;32921;53.256;8.198;2023-07-22T08:09:58;5.90;;;2.97;;
47161;SDS011;32921;53.256;8.198;2023-07-22T08:12:24;5.18;;;3.03;;
47161;SDS011;32921;53.256;8.198;2023-07-22T08:14:51;6.25;;;3.20;;
47161;SDS011;32921;53.256;8.198;2023-07-22T08:17:18;7.25;;;3.70;;
47161;SDS011;32921;53.256;8.198;2023-07-22T08:19:43;6.15;;;3.00;;
47161;SDS011;32921;53.256;8.198;2023-07-22T08:22:09;9.02;;;3.40;;
47161;SDS011;32921;53.256;8.198;2023-07-22T08:24:34;7.07;;;3.75;;
47161;SDS011;32921;53.256;8.198;2023-07-22T08:27:00;8.57;;;4.15;;
47161;SDS011;32921;53.256;8.198;2023-07-22T08:29:26;7.85;;;4.35;;
47161;SDS011;32921;53.256;8.198;2023-07-22T08:31:51;6.90;;;3.80;;
47161;SDS011;32921;53.256;8.198;2023-07-22T08:34:17;9.07;;;3.55;;
47161;SDS011;32921;53.256;8.198;2023-07-22T08:36:42;8.15;;;3.70;;
47161;SDS011;32921;53.256;8.198;2023-07-22T08:39:08;9.25;;;3.97;;
47161;SDS011;32921;53.256;8.198;2023-07-22T08:41:34;9.32;;;4.78;;
47161;SDS011;32921;53.256;8.198;2023-07-22T08:44:01;9.65;;;4.50;;
47161;SDS011;32921;53.256;8.198;2023-07-22T08:46:29;8.25;;;4.82;;
47161;SDS011;32921;53.256;8.198;2023-07-22T08:48:59;9.60;;;5.00;;
47161;SDS011;32921;53.256;8.198;2023-07-22T08:51:25;8.95;;;5.45;;
47161;SDS011;32921;53.256;8.198;2023-07-22T08:53:58;10.98;;;5.45;;
47161;SDS011;32921;53.256;8.198;2023-07-22T08:56:24;8.43;;;5.32;;
47161;SDS011;32921;53.256;8.198;2023-07-22T08:58:53;12.02;;;6.18;;
47161;SDS011;32921;53.256;8.198;2023-07-22T09:01:20;9.65;;;6.07;;
47161;SDS011;32921;53.256;8.198;2023-07-22T09:03:46;11.40;;;5.53;;
47161;SDS011;32921;53.256;8.198;2023-07-22T09:06:15;10.57;;;5.88;;
47161;SDS011;32921;53.256;8.198;2023-07-22T09:08:42;11.70;;;6.30;;
47161;SDS011;32921;53.256;8.198;2023-07-22T09:11:07;13.68;;;5.53;;
47161;SDS011;32921;53.256;8.198;2023-07-22T09:13:33;9.65;;;6.05;;
47161;SDS011;32921;53.256;8.198;2023-07-22T09:16:00;11.50;;;6.50;;
47161;SDS011;32921;53.256;8.198;2023-07-22T09:18:27;11.95;;;6.50;;
47161;SDS011;32921;53.256;8.198;2023-07-22T09:20:53;10.90;;;6.03;;
47161;SDS011;32921;53.256;8.198;2023-07-22T09:23:18;10.68;;;6.00;;
47161;SDS011;32921;53.256;8.198;2023-07-22T09:26:07;10.27;;;5.88;;
47161;SDS011;32921;53.256;8.198;2023-07-22T09:28:47;9.48;;;5.90;;
47161;SDS011;32921;53.256;8.198;2023-07-22T09:31:14;8.10;;;5.55;;
47161;SDS011;32921;53.256;8.198;2023-07-22T09:33:39;9.27;;;5.70;;
47161;SDS011;32921;53.256;8.198;2023-07-22T09:36:05;11.77;;;5.32;;
47161;SDS011;32921;53.256;8.198;2023-07-22T09:38:31;10.25;;;5.72;;
47161;SDS011;32921;53.256;8.198;2023-07-22T09:40:56;9.90;;;5.75;;
47161;SDS011;32921;53.256;8.198;2023-07-22T09:43:22;10.13;;;5.60;;
47161;SDS011;32921;53.256;8.198;2023-07-22T09:45:49;10.07;;;6.05;;
47161;SDS011;32921;53.256;8.198;2023-07-22T09:48:15;11.07;;;6.30;;
47161;SDS011;32921;53.256;8.198;2023-07-22T09:50:40;10.00;;;6.15;;
47161;SDS011;32921;53.256;8.198;2023-07-22T09:53:06;13.23;;;6.70;;
47161;SDS011;32921;53.256;8.198;2023-07-22T09:55:32;9.75;;;6.13;;
47161;SDS011;32921;53.256;8.198;2023-07-22T09:58:02;11.63;;;5.43;;
47161;SDS011;32921;53.256;8.198;2023-07-22T10:00:30;12.05;;;6.07;;
47161;SDS011;32921;53.256;8.198;2023-07-22T10:03:02;8.10;;;5.22;;
47161;SDS011;32921;53.256;8.198;2023-07-22T10:05:33;10.38;;;6.07;;
47161;SDS011;32921;53.256;8.198;2023-07-22T10:07:59;9.95;;;6.05;;
47161;SDS011;32921;53.256;8.198;2023-07-22T10:10:30;6.53;;;4.38;;
47161;SDS011;32921;53.256;8.198;2023-07-22T10:12:58;8.98;;;4.65;;
47161;SDS011;32921;53.256;8.198;2023-07-22T10:15:28;9.05;;;5.55;;
47161;SDS011;32921;53.256;8.198;2023-07-22T10:17:55;7.43;;;4.63;;
47161;SDS011;32921;53.256;8.198;2023-07-22T10:20:22;9.15;;;4.55;;
47161;SDS011;32921;53.256;8.198;2023-07-22T10:22:48;7.93;;;4.82;;
47161;SDS011;32921;53.256;8.198;2023-07-22T10:25:16;8.82;;;5.20;;
47161;SDS011;32921;53.256;8.198;2023-07-22T10:27:44;9.75;;;5.32;;
47161;SDS011;32921;53.256;8.198;2023-07-22T10:30:11;8.57;;;4.57;;
47161;SDS011;32921;53.256;8.198;2023-07-22T10:32:38;7.47;;;4.57;;
47161;SDS011;32921;53.256;8.198;2023-07-22T10:35:07;8.05;;;4.70;;
47161;SDS011;32921;53.256;8.198;2023-07-22T10:37:37;9.00;;;4.57;;
47161;SDS011;32921;53.256;8.198;2023-07-22T10:43:11;9.43;;;4.95;;
47161;SDS011;32921;53.256;8.198;2023-07-22T10:45:41;8.00;;;4.15;;
47161;SDS011;32921;53.256;8.198;2023-07-22T10:48:08;8.32;;;3.85;;
47161;SDS011;32921;53.256;8.198;2023-07-22T10:50:43;6.15;;;3.83;;
47161;SDS011;32921;53.256;8.198;2023-07-22T10:56:07;7.32;;;3.95;;
47161;SDS011;32921;53.256;8.198;2023-07-22T11:01:23;6.47;;;4.20;;
47161;SDS011;32921;53.256;8.198;2023-07-22T11:06:32;8.65;;;4.60;;
47161;SDS011;32921;53.256;8.198;2023-07-22T11:08:58;9.07;;;4.50;;
47161;SDS011;32921;53.256;8.198;2023-07-22T11:11:40;8.95;;;4.70;;
47161;SDS011;32921;53.256;8.198;2023-07-22T11:14:16;8.48;;;4.65;;
47161;SDS011;32921;53.256;8.198;2023-07-22T11:16:44;9.13;;;4.38;;
47161;SDS011;32921;53.256;8.198;2023-07-22T11:19:12;9.52;;;5.13;;
47161;SDS011;32921;53.256;8.198;2023-07-22T11:21:42;8.63;;;4.05;;
47161;SDS011;32921;53.256;8.198;2023-07-22T11:24:08;6.57;;;3.45;;
47161;SDS011;32921;53.256;8.198;2023-07-22T11:26:34;9.50;;;3.60;;
47161;SDS011;32921;53.256;8.198;2023-07-22T11:29:02;8.02;;;3.90;;
47161;SDS011;32921;53.256;8.198;2023-07-22T11:31:32;6.03;;;3.85;;
47161;SDS011;32921;53.256;8.198;2023-07-22T11:33:59;8.05;;;4.20;;
47161;SDS011;32921;53.256;8.198;2023-07-22T11:36:28;7.45;;;4.20;;
47161;SDS011;32921;53.256;8.198;2023-07-22T11:38:54;7.63;;;4.32;;
47161;SDS011;32921;53.256;8.198;2023-07-22T11:41:30;7.72;;;4.13;;
47161;SDS011;32921;53.256;8.198;2023-07-22T11:43:57;5.90;;;3.72;;
47161;SDS011;32921;53.256;8.198;2023-07-22T11:46:23;8.73;;;4.22;;
47161;SDS011;32921;53.256;8.198;2023-07-22T11:48:50;8.73;;;4.55;;
47161;SDS011;32921;53.256;8.198;2023-07-22T11:51:18;10.25;;;4.90;;
47161;SDS011;32921;53.256;8.198;2023-07-22T11:53:48;8.80;;;4.93;;
47161;SDS011;32921;53.256;8.198;2023-07-22T11:56:27;12.10;;;5.25;;
47161;SDS011;32921;53.256;8.198;2023-07-22T11:58:56;10.73;;;5.63;;
47161;SDS011;32921;53.256;8.198;2023-07-22T12:01:22;14.45;;;5.93;;
47161;SDS011;32921;53.256;8.198;2023-07-22T12:03:48;9.32;;;6.03;;
47161;SDS011;32921;53.256;8.198;2023-07-22T12:06:19;15.38;;;6.75;;
47161;SDS011;32921;53.256;8.198;2023-07-22T12:08:46;11.65;;;6.63;;
47161;SDS011;32921;53.256;8.198;2023-07-22T12:11:16;11.93;;;7.05;;
47161;SDS011;32921;53.256;8.198;2023-07-22T12:13:43;12.93;;;6.90;;
47161;SDS011;32921;53.256;8.198;2023-07-22T12:16:11;14.23;;;7.85;;
47161;SDS011;32921;53.256;8.198;2023-07-22T12:18:41;12.50;;;8.43;;
47161;SDS011;32921;53.256;8.198;2023-07-22T12:21:07;11.00;;;6.87;;
47161;SDS011;32921;53.256;8.198;2023-07-22T12:23:34;14.77;;;8.15;;
47161;SDS011;32921;53.256;8.198;2023-07-22T12:26:00;10.88;;;6.45;;
47161;SDS011;32921;53.256;8.198;2023-07-22T12:28:26;7.95;;;5.25;;
47161;SDS011;32921;53.256;8.198;2023-07-22T12:30:51;8.93;;;5.50;;
47161;SDS011;32921;53.256;8.198;2023-07-22T12:33:17;7.35;;;5.05;;
47161;SDS011;32921;53.256;8.198;2023-07-22T12:35:42;11.10;;;6.00;;
47161;SDS011;32921;53.256;8.198;2023-07-22T12:38:08;9.35;;;5.95;;
47161;SDS011;32921;53.256;8.198;2023-07-22T12:40:34;9.60;;;5.90;;
47161;SDS011;32921;53.256;8.198;2023-07-22T12:42:59;10.27;;;6.10;;
47161;SDS011;32921;53.256;8.198;2023-07-22T12:45:25;10.68;;;6.18;;
47161;SDS011;32921;53.256;8.198;2023-07-22T12:47:50;11.20;;;6.43;;
47161;SDS011;32921;53.256;8.198;2023-07-22T12:50:16;13.23;;;7.15;;
47161;SDS011;32921;53.256;8.198;2023-07-22T12:52:41;12.23;;;8.10;;
47161;SDS011;32921;53.256;8.198;2023-07-22T12:55:07;14.02;;;7.65;;
47161;SDS011;32921;53.256;8.198;2023-07-22T12:57:33;16.60;;;7.95;;
47161;SDS011;32921;53.256;8.198;2023-07-22T12:59:58;12.05;;;7.60;;
47161;SDS011;32921;53.256;8.198;2023-07-22T13:02:24;13.38;;;7.85;;
47161;SDS011;32921;53.256;8.198;2023-07-22T13:04:51;12.02;;;6.85;;
47161;SDS011;32921;53.256;8.198;2023-07-22T13:07:16;12.07;;;6.65;;
47161;SDS011;32921;53.256;8.198;2023-07-22T13:09:42;10.63;;;5.95;;
47161;SDS011;32921;53.256;8.198;2023-07-22T13:12:21;8.30;;;5.43;;
47161;SDS011;32921;53.256;8.198;2023-07-22T13:14:47;8.48;;;5.10;;
47161;SDS011;32921;53.256;8.198;2023-07-22T13:17:12;7.00;;;5.10;;
47161;SDS011;32921;53.256;8.198;2023-07-22T13:19:38;5.93;;;4.22;;
47161;SDS011;32921;53.256;8.198;2023-07-22T13:22:03;6.90;;;4.55;;
47161;SDS011;32921;53.256;8.198;2023-07-22T13:24:29;8.52;;;4.70;;
47161;SDS011;32921;53.256;8.198;2023-07-22T13:26:55;7.63;;;4.60;;
47161;SDS011;32921;53.256;8.198;2023-07-22T13:29:20;7.70;;;4.43;;
47161;SDS011;32921;53.256;8.198;2023-07-22T13:31:46;9.57;;;4.45;;
47161;SDS011;32921;53.256;8.198;2023-07-22T13:34:11;8.50;;;4.80;;
47161;SDS011;32921;53.256;8.198;2023-07-22T13:36:37;8.77;;;5.22;;
47161;SDS011;32921;53.256;8.198;2023-07-22T13:39:02;9.20;;;5.47;;
47161;SDS011;32921;53.256;8.198;2023-07-22T13:41:28;11.23;;;6.05;;
47161;SDS011;32921;53.256;8.198;2023-07-22T13:43:53;10.32;;;6.60;;
47161;SDS011;32921;53.256;8.198;2023-07-22T13:46:19;9.30;;;6.78;;
47161;SDS011;32921;53.256;8.198;2023-07-22T13:48:45;9.13;;;6.10;;
47161;SDS011;32921;53.256;8.198;2023-07-22T13:51:10;14.35;;;7.57;;
47161;SDS011;32921;53.256;8.198;2023-07-22T13:53:36;11.88;;;8.07;;
47161;SDS011;32921;53.256;8.198;2023-07-22T13:56:01;10.27;;;7.65;;
47161;SDS011;32921;53.256;8.198;2023-07-22T13:58:28;11.13;;;8.23;;
47161;SDS011;32921;53.256;8.198;2023-07-22T14:00:53;12.02;;;8.60;;
47161;SDS011;32921;53.256;8.198;2023-07-22T14:03:19;13.95;;;8.80;;
47161;SDS011;32921;53.256;8.198;2023-07-22T14:05:44;12.18;;;8.57;;
47161;SDS011;32921;53.256;8.198;2023-07-22T14:08:11;12.02;;;8.82;;
47161;SDS011;32921;53.256;8.198;2023-07-22T14:10:36;13.80;;;9.02;;
47161;SDS011;32921;53.256;8.198;2023-07-22T14:13:02;12.68;;;9.05;;
47161;SDS011;32921;53.256;8.198;2023-07-22T14:15:27;12.93;;;9.20;;
47161;SDS011;32921;53.256;8.198;2023-07-22T14:17:53;12.45;;;8.73;;
47161;SDS011;32921;53.256;8.198;2023-07-22T14:20:19;14.20;;;8.50;;
47161;SDS011;32921;53.256;8.198;2023-07-22T14:22:44;12.10;;;9.07;;
47161;SDS011;32921;53.256;8.198;2023-07-22T14:25:10;13.00;;;9.45;;
47161;SDS011;32921;53.256;8.198;2023-07-22T14:27:37;12.32;;;9.65;;
47161;SDS011;32921;53.256;8.198;2023-07-22T14:30:05;14.25;;;10.13;;
47161;SDS011;32921;53.256;8.198;2023-07-22T14:32:31;13.77;;;10.40;;
47161;SDS011;32921;53.256;8.198;2023-07-22T14:34:57;15.43;;;10.63;;
47161;SDS011;32921;53.256;8.198;2023-07-22T14:37:22;17.00;;;11.77;;
47161;SDS011;32921;53.256;8.198;2023-07-22T14:39:48;17.38;;;12.45;;
47161;SDS011;32921;53.256;8.198;2023-07-22T14:42:14;15.77;;;12.18;;
47161;SDS011;32921;53.256;8.198;2023-07-22T14:44:40;14.50;;;11.27;;
47161;SDS011;32921;53.256;8.198;2023-07-22T14:47:05;18.73;;;12.27;;
47161;SDS011;32921;53.256;8.198;2023-07-22T14:49:31;17.23;;;12.23;;
47161;SDS011;32921;53.256;8.198;2023-07-22T14:51:56;14.93;;;10.57;;
47161;SDS011;32921;53.256;8.198;2023-07-22T14:54:22;16.90;;;11.02;;